Aviation Digital Data Service (ADDS)

Output produced by METARs form (1827 UTC 22 November 2017)
found at http://www.aviationweather.gov/adds/metars/
 
KBID 221756Z AUTO 16004KT 7SM -RA BKN004 BKN008 OVC060 12/12 A2980 RMK AO2 SLP096 P0005 60110 T01170117 10122 20117 58022
KUUU 221753Z AUTO 13006KT 4SM RA BR BKN003 BKN050 OVC060 12/12 A2979 RMK AO2 SLP087 P0011 60098 T01170117 10122 20117 58038
KOQU 221755Z 18005KT 3SM -RA BR BKN004 OVC020 12/11 A2979
KSFZ 221803Z AUTO 31006KT 6SM RA BR FEW003 BKN008 OVC045 10/10 A2980 RMK AO2 CIG 005V015 P0002
KPVD 221751Z 17003KT 1 1/2SM -RA BR OVC003 12/12 A2979 RMK AO2 SFC VIS 1 3/4 PRESFR SLP089 P0008 60075 T01220122 10122 20117 56044
KPVD 221734Z 2218/2318 31004KT 2SM -RA BR OVC003 
     FM222000 33007G17KT 4SM -RA BR OVC015 
     FM222100 33010G25KT P6SM BKN045 
     FM222300 33011G25KT P6SM SCT250 
     FM230800 32007KT P6SM SKC
       
KWST 221818Z AUTO VRB06KT 1 3/4SM -RA BR BKN004 OVC010 13/13 A2980 RMK AO2 VIS 1/2V5 P0002 T01280128